createdAt,value
2023-03-28T00:01:10.010Z,98016.70
2023-03-28T00:03:42.701Z,98058.92
2023-03-28T00:06:16.683Z,98057.41
2023-03-28T00:08:47.790Z,98064.64
2023-03-28T00:11:20.467Z,98075.30
2023-03-28T00:13:58.502Z,98082.07
2023-03-28T00:16:32.765Z,98081.36
2023-03-28T00:19:11.935Z,98077.72
2023-03-28T00:21:47.285Z,98082.02
2023-03-28T00:24:18.096Z,98079.66
2023-03-28T00:26:49.709Z,98091.98
2023-03-28T00:29:21.402Z,98096.68
2023-03-28T00:31:51.128Z,98099.33
2023-03-28T00:34:19.605Z,98099.18
2023-03-28T00:36:47.918Z,98094.55
2023-03-28T00:39:16.881Z,98094.21
2023-03-28T00:41:45.666Z,98100.23
2023-03-28T00:44:51.088Z,98114.71
2023-03-28T00:47:28.562Z,98114.07
2023-03-28T00:50:27.639Z,98116.36
2023-03-28T00:53:26.911Z,98119.89
2023-03-28T00:56:08.701Z,98118.48
2023-03-28T00:58:42.586Z,98123.58
2023-03-28T01:01:14.261Z,98125.52
2023-03-28T01:03:46.584Z,98134.88
2023-03-28T01:06:16.617Z,98130.45
2023-03-28T01:08:47.269Z,98124.57
2023-03-28T01:11:17.951Z,98118.84
2023-03-28T01:13:50.243Z,98118.24
2023-03-28T01:16:21.272Z,98130.80
2023-03-28T01:18:53.395Z,98127.89
2023-03-28T01:21:54.075Z,98130.59
2023-03-28T01:24:36.938Z,98128.05
2023-03-28T01:27:26.300Z,98128.91
2023-03-28T01:30:42.640Z,98122.15
2023-03-28T01:33:57.503Z,98127.02
2023-03-28T01:36:46.331Z,98131.04
2023-03-28T01:39:43.569Z,98129.00
2023-03-28T01:42:30.770Z,98130.55
2023-03-28T01:45:20.671Z,98122.36
2023-03-28T01:47:58.023Z,98129.33
2023-03-28T01:50:33.044Z,98128.77
2023-03-28T01:53:44.600Z,98132.88
2023-03-28T01:56:51.027Z,98134.96
2023-03-28T01:59:42.138Z,98131.52
2023-03-28T02:02:44.088Z,98124.91
2023-03-28T02:05:28.097Z,98121.82
2023-03-28T02:07:58.677Z,98121.77
2023-03-28T02:10:42.013Z,98122.45
2023-03-28T02:13:49.310Z,98125.51
2023-03-28T02:16:50.264Z,98123.21
2023-03-28T02:19:39.027Z,98133.29
2023-03-28T02:22:20.000Z,98124.96
2023-03-28T02:24:54.535Z,98127.23
2023-03-28T02:27:46.629Z,98122.30
2023-03-28T02:30:34.620Z,98138.63
2023-03-28T02:33:09.811Z,98127.50
2023-03-28T02:36:17.225Z,98131.52
2023-03-28T02:38:46.211Z,98133.58
2023-03-28T02:41:34.643Z,98141.15
2023-03-28T02:44:15.272Z,98140.77
2023-03-28T02:46:56.167Z,98142.91
2023-03-28T02:49:29.931Z,98132.11
2023-03-28T02:52:09.587Z,98140.91
2023-03-28T02:54:53.101Z,98137.16
2023-03-28T02:57:37.840Z,98135.23
2023-03-28T03:00:13.115Z,98137.86
2023-03-28T03:02:49.414Z,98132.73
2023-03-28T03:05:23.134Z,98128.92
2023-03-28T03:07:52.438Z,98117.98
2023-03-28T03:10:22.249Z,98132.80
2023-03-28T03:12:50.747Z,98127.45
2023-03-28T03:15:19.084Z,98134.89
2023-03-28T03:17:58.944Z,98123.58
2023-03-28T03:20:34.352Z,98137.80
2023-03-28T03:23:04.171Z,98141.79
2023-03-28T03:25:35.076Z,98136.92
2023-03-28T03:28:13.384Z,98133.78
2023-03-28T03:30:42.123Z,98141.58
2023-03-28T03:33:48.833Z,98137.11
2023-03-28T03:36:19.035Z,98137.27
2023-03-28T03:38:47.738Z,98137.86
2023-03-28T03:41:20.562Z,98137.81
2023-03-28T03:43:50.056Z,98150.02
2023-03-28T03:46:18.639Z,98162.17
2023-03-28T03:48:49.697Z,98174.73
2023-03-28T03:51:19.030Z,98176.61
2023-03-28T03:53:53.559Z,98184.66
2023-03-28T03:56:26.079Z,98194.78
2023-03-28T03:58:57.494Z,98196.75
2023-03-28T04:01:32.822Z,98212.70
2023-03-28T04:04:21.659Z,98221.23
2023-03-28T04:07:15.817Z,98218.46
2023-03-28T04:09:44.261Z,98221.10
2023-03-28T04:12:12.779Z,98216.81
2023-03-28T04:14:48.672Z,98214.41
2023-03-28T04:17:36.386Z,98224.52
2023-03-28T04:20:12.268Z,98231.27
2023-03-28T04:22:56.679Z,98240.11
2023-03-28T04:25:25.207Z,98246.34
2023-03-28T04:27:54.858Z,98245.83
2023-03-28T04:30:26.084Z,98259.89
2023-03-28T04:33:30.348Z,98265.84
2023-03-28T04:36:03.440Z,98275.27
2023-03-28T04:38:36.491Z,98279.91
2023-03-28T04:41:40.363Z,98290.64
2023-03-28T04:44:24.120Z,98301.45
2023-03-28T04:47:00.179Z,98311.77
2023-03-28T04:49:28.421Z,98295.92
2023-03-28T04:51:56.866Z,98309.07
2023-03-28T04:54:25.131Z,98319.30
2023-03-28T04:57:13.112Z,98315.05
2023-03-28T04:59:45.379Z,98335.70
2023-03-28T05:02:33.912Z,98345.24
2023-03-28T05:05:04.101Z,98354.15
2023-03-28T05:07:32.562Z,98355.22
2023-03-28T05:10:01.608Z,98360.20
2023-03-28T05:12:35.059Z,98364.75
2023-03-28T05:15:06.524Z,98366.65
2023-03-28T05:17:41.326Z,98371.98
2023-03-28T05:20:21.402Z,98378.40
2023-03-28T05:22:53.417Z,98378.45
2023-03-28T05:25:22.140Z,98386.27
2023-03-28T05:27:51.613Z,98388.20
2023-03-28T05:30:19.975Z,98390.36
2023-03-28T05:32:52.034Z,98395.92
2023-03-28T05:35:20.523Z,98406.81
2023-03-28T05:37:51.652Z,98415.20
2023-03-28T05:40:20.401Z,98403.09
2023-03-28T05:42:48.647Z,98417.23
2023-03-28T05:45:18.189Z,98410.27
2023-03-28T05:47:57.882Z,98425.95
2023-03-28T05:50:26.505Z,98426.15
2023-03-28T05:53:00.030Z,98428.56
2023-03-28T05:55:28.428Z,98424.14
2023-03-28T05:57:57.794Z,98428.55
2023-03-28T06:00:29.066Z,98441.28
2023-03-28T06:02:58.237Z,98437.75
2023-03-28T06:05:36.674Z,98454.75
2023-03-28T06:08:09.659Z,98462.41
2023-03-28T06:10:38.649Z,98468.33
2023-03-28T06:13:20.806Z,98472.05
2023-03-28T06:15:49.501Z,98463.91
2023-03-28T06:18:18.530Z,98481.88
2023-03-28T06:20:48.111Z,98476.65
2023-03-28T06:23:16.852Z,98481.66
2023-03-28T06:25:45.648Z,98503.50
2023-03-28T06:28:15.847Z,98505.70
2023-03-28T06:31:03.443Z,98520.25
2023-03-28T06:33:31.932Z,98506.56
2023-03-28T06:36:00.166Z,98539.82
2023-03-28T06:38:30.728Z,98536.49
2023-03-28T06:40:59.085Z,98541.23
2023-03-28T06:43:27.625Z,98544.16
2023-03-28T06:46:08.629Z,98543.64
2023-03-28T06:48:39.950Z,98558.88
2023-03-28T06:51:31.186Z,98570.23
2023-03-28T06:53:59.412Z,98568.57
2023-03-28T06:56:29.500Z,98578.86
2023-03-28T06:58:58.704Z,98580.66
2023-03-28T07:01:28.321Z,98580.77
2023-03-28T07:04:13.143Z,98584.05
2023-03-28T07:06:42.598Z,98589.20
2023-03-28T07:09:10.867Z,98586.55
2023-03-28T07:11:45.426Z,98590.30
2023-03-28T07:14:13.872Z,98588.41
2023-03-28T07:16:42.526Z,98596.68
2023-03-28T07:19:11.835Z,98590.23
2023-03-28T07:21:42.773Z,98610.89
2023-03-28T07:24:11.046Z,98615.80
2023-03-28T07:27:13.971Z,98628.38
2023-03-28T07:29:43.659Z,98620.50
2023-03-28T07:32:13.454Z,98620.20
2023-03-28T07:34:44.927Z,98619.35
2023-03-28T07:37:18.296Z,98627.67
2023-03-28T07:40:07.194Z,98633.38
2023-03-28T07:42:35.472Z,98627.05
2023-03-28T07:45:03.974Z,98637.33
2023-03-28T07:47:32.185Z,98640.26
2023-03-28T07:50:00.383Z,98642.98
2023-03-28T07:52:29.679Z,98630.88
2023-03-28T07:54:57.982Z,98648.69
2023-03-28T07:57:26.878Z,98650.31
2023-03-28T07:59:59.741Z,98654.23
2023-03-28T08:02:28.254Z,98657.42
2023-03-28T08:04:56.743Z,98675.47
2023-03-28T08:07:27.276Z,98675.28
2023-03-28T08:09:58.404Z,98683.16
2023-03-28T08:12:32.070Z,98685.66
2023-03-28T08:15:00.409Z,98695.75
2023-03-28T08:17:29.427Z,98692.73
2023-03-28T08:19:58.089Z,98694.16
2023-03-28T08:22:29.359Z,98690.96
2023-03-28T08:25:20.720Z,98708.47
2023-03-28T08:27:49.923Z,98716.82
2023-03-28T08:30:18.091Z,98720.59
2023-03-28T08:32:53.430Z,98718.84
2023-03-28T08:35:21.998Z,98736.19
2023-03-28T08:37:52.863Z,98737.14
2023-03-28T08:40:21.389Z,98733.34
2023-03-28T08:42:57.382Z,98748.97
2023-03-28T08:45:40.076Z,98749.98
2023-03-28T08:48:11.601Z,98764.79
2023-03-28T08:50:46.084Z,98771.41
2023-03-28T08:53:26.862Z,98772.16
2023-03-28T08:55:57.758Z,98775.23
2023-03-28T08:58:31.948Z,98785.39
2023-03-28T09:01:00.442Z,98776.59
2023-03-28T09:03:37.091Z,98775.21
2023-03-28T09:06:29.692Z,98786.83
2023-03-28T09:09:08.971Z,98793.91
2023-03-28T09:12:01.391Z,98774.02
2023-03-28T09:14:30.239Z,98802.79
2023-03-28T09:17:07.691Z,98803.60
2023-03-28T09:19:48.633Z,98800.15
2023-03-28T09:23:16.322Z,98814.55
2023-03-28T09:26:28.719Z,98810.02
2023-03-28T09:29:11.660Z,98798.96
2023-03-28T09:31:45.978Z,98811.64
2023-03-28T09:34:27.836Z,98813.63
2023-03-28T09:37:07.188Z,98811.83
2023-03-28T09:39:42.543Z,98823.59
2023-03-28T09:42:29.865Z,98820.63
2023-03-28T09:45:37.439Z,98819.90
2023-03-28T09:48:29.663Z,98816.62
2023-03-28T09:51:02.529Z,98817.98
2023-03-28T09:53:33.516Z,98814.52
2023-03-28T09:56:13.331Z,98819.38
2023-03-28T09:58:52.340Z,98822.84
2023-03-28T10:01:59.381Z,98823.98
2023-03-28T10:04:45.898Z,98830.36
2023-03-28T10:07:32.403Z,98829.23
2023-03-28T10:10:22.052Z,98841.56
2023-03-28T10:13:02.528Z,98843.08
2023-03-28T10:15:41.454Z,98843.11
2023-03-28T10:18:21.347Z,98848.59
2023-03-28T10:21:18.883Z,98850.60
2023-03-28T10:24:15.815Z,98857.61
2023-03-28T10:26:48.994Z,98862.61
2023-03-28T10:29:18.193Z,98865.08
2023-03-28T10:31:50.439Z,98871.60
2023-03-28T10:34:31.800Z,98861.32
2023-03-28T10:37:32.061Z,98874.60
2023-03-28T10:40:19.286Z,98867.95
2023-03-28T10:43:13.998Z,98875.30
2023-03-28T10:46:13.239Z,98876.02
2023-03-28T10:49:00.014Z,98889.05
2023-03-28T10:51:31.652Z,98891.27
2023-03-28T10:54:06.213Z,98890.31
2023-03-28T10:56:44.915Z,98889.55
2023-03-28T10:59:28.459Z,98886.81
2023-03-28T11:02:09.138Z,98896.95
2023-03-28T11:04:56.189Z,98886.66
2023-03-28T11:07:33.961Z,98889.79
2023-03-28T11:10:18.918Z,98878.59
2023-03-28T11:13:22.070Z,98875.63
2023-03-28T11:16:06.290Z,98873.92
2023-03-28T11:19:00.955Z,98870.95
2023-03-28T11:22:22.182Z,98880.70
2023-03-28T11:25:08.779Z,98893.55
2023-03-28T11:28:16.446Z,98913.17
2023-03-28T11:30:52.927Z,98913.49
2023-03-28T11:33:43.568Z,98936.48
2023-03-28T11:36:22.803Z,98947.17
2023-03-28T11:39:20.350Z,98943.45
2023-03-28T11:41:51.960Z,98946.34
2023-03-28T11:44:43.887Z,98953.60
2023-03-28T11:47:21.938Z,98958.04
2023-03-28T11:50:08.345Z,98970.29
2023-03-28T11:53:04.667Z,98968.14
2023-03-28T11:55:44.829Z,98969.52
2023-03-28T11:58:26.310Z,98964.00
2023-03-28T12:01:14.367Z,98970.86
2023-03-28T12:04:02.283Z,98981.46
2023-03-28T12:06:37.408Z,98988.15
2023-03-28T12:09:22.799Z,98997.58
2023-03-28T12:12:01.154Z,99011.77
2023-03-28T12:14:48.193Z,99023.17
2023-03-28T12:17:31.922Z,99024.41
2023-03-28T12:20:00.678Z,99028.20
2023-03-28T12:22:41.106Z,99030.04
2023-03-28T12:25:41.743Z,99018.81
2023-03-28T12:28:32.358Z,99027.29
2023-03-28T12:31:11.019Z,99022.55
2023-03-28T12:34:01.380Z,99020.05
2023-03-28T12:37:23.718Z,99035.22
2023-03-28T12:40:13.156Z,99026.89
2023-03-28T12:42:45.454Z,99014.70
2023-03-28T12:45:20.884Z,99024.30
2023-03-28T12:47:54.541Z,99028.17
2023-03-28T12:50:34.312Z,99027.19
2023-03-28T12:53:03.037Z,99029.44
2023-03-28T12:55:37.717Z,99029.91
2023-03-28T12:58:46.951Z,99040.09
2023-03-28T13:01:34.974Z,99035.41
2023-03-28T13:04:43.824Z,99027.45
2023-03-28T13:07:35.880Z,99034.24
2023-03-28T13:10:26.367Z,99033.64
2023-03-28T13:13:19.877Z,99040.46
2023-03-28T13:16:13.758Z,99035.64
2023-03-28T13:19:04.030Z,99048.22
2023-03-28T13:21:46.438Z,99050.38
2023-03-28T13:24:27.394Z,99048.29
2023-03-28T13:27:00.127Z,99053.00
2023-03-28T13:29:45.602Z,99051.61
2023-03-28T13:32:17.513Z,99061.22
2023-03-28T13:34:52.898Z,99058.23
2023-03-28T13:37:43.691Z,99056.18
2023-03-28T13:40:41.364Z,99051.59
2023-03-28T13:43:35.989Z,99052.82
2023-03-28T13:46:24.388Z,99053.38
2023-03-28T13:49:07.030Z,99068.01
2023-03-28T13:52:08.289Z,99067.44
2023-03-28T13:54:36.798Z,99062.83
2023-03-28T13:57:08.532Z,99078.16
2023-03-28T13:59:49.771Z,99082.80
2023-03-28T14:02:41.693Z,99090.27
2023-03-28T14:05:26.533Z,99100.04
2023-03-28T14:08:01.827Z,99098.77
2023-03-28T14:10:35.360Z,99107.86
2023-03-28T14:13:08.480Z,99105.27
2023-03-28T14:15:42.308Z,99115.65
2023-03-28T14:18:17.411Z,99113.87
2023-03-28T14:20:47.627Z,99128.48
2023-03-28T14:23:29.380Z,99132.45
2023-03-28T14:26:01.293Z,99136.09
2023-03-28T14:28:30.904Z,99130.80
2023-03-28T14:30:59.846Z,99141.12
2023-03-28T14:33:37.845Z,99146.91
2023-03-28T14:36:06.758Z,99139.54
2023-03-28T14:38:38.485Z,99141.23
2023-03-28T14:41:27.664Z,99143.42
2023-03-28T14:43:59.148Z,99151.25
2023-03-28T14:46:30.184Z,99153.11
2023-03-28T14:49:01.491Z,99153.73
2023-03-28T14:51:40.243Z,99159.16
2023-03-28T14:54:26.148Z,99164.63
2023-03-28T14:56:57.590Z,99173.85
2023-03-28T14:59:37.324Z,99179.09
2023-03-28T15:02:06.806Z,99175.56
2023-03-28T15:04:36.253Z,99174.98
2023-03-28T15:07:04.777Z,99188.46
2023-03-28T15:09:34.807Z,99184.80
2023-03-28T15:12:09.262Z,99193.94
2023-03-28T15:14:44.234Z,99197.33
2023-03-28T15:17:19.695Z,99193.69
2023-03-28T15:19:54.540Z,99197.64
2023-03-28T15:22:27.885Z,99207.86
2023-03-28T15:24:58.269Z,99216.09
2023-03-28T15:27:36.381Z,99214.73
2023-03-28T15:30:16.291Z,99222.05
2023-03-28T15:32:45.290Z,99233.28
2023-03-28T15:35:30.917Z,99230.19
2023-03-28T15:38:17.284Z,99232.55
2023-03-28T15:40:48.357Z,99234.11
2023-03-28T15:43:56.217Z,99242.73
2023-03-28T15:46:31.650Z,99245.48
2023-03-28T15:49:02.349Z,99246.98
2023-03-28T15:51:31.805Z,99254.39
2023-03-28T15:54:00.564Z,99250.81
2023-03-28T15:56:32.257Z,99261.83
2023-03-28T15:59:03.579Z,99266.81
2023-03-28T16:01:33.395Z,99269.95
2023-03-28T16:04:29.016Z,99273.83
2023-03-28T16:07:13.785Z,99285.42
2023-03-28T16:09:43.519Z,99294.06
2023-03-28T16:12:14.505Z,99294.30
2023-03-28T16:14:49.307Z,99303.55
2023-03-28T16:17:25.848Z,99308.99
2023-03-28T16:20:20.337Z,99310.14
2023-03-28T16:22:49.953Z,99314.61
2023-03-28T16:25:18.253Z,99323.66
2023-03-28T16:27:46.491Z,99323.95
2023-03-28T16:30:20.744Z,99330.84
2023-03-28T16:32:49.039Z,99336.42
2023-03-28T16:35:17.305Z,99342.58
2023-03-28T16:37:45.651Z,99346.46
2023-03-28T16:40:15.194Z,99353.86
2023-03-28T16:42:43.480Z,99357.32
2023-03-28T16:45:13.085Z,99347.84
2023-03-28T16:47:42.329Z,99368.14
2023-03-28T16:50:10.877Z,99376.06
2023-03-28T16:52:40.695Z,99388.10
2023-03-28T16:55:12.058Z,99387.20
2023-03-28T16:57:40.524Z,99400.21
2023-03-28T17:00:12.386Z,99403.04
2023-03-28T17:02:41.714Z,99408.35
2023-03-28T17:05:10.304Z,99407.69
2023-03-28T17:07:39.081Z,99415.14
2023-03-28T17:10:08.925Z,99418.66
2023-03-28T17:12:37.445Z,99420.41
2023-03-28T17:15:06.982Z,99430.11
2023-03-28T17:17:35.348Z,99437.23
2023-03-28T17:20:05.119Z,99441.89
2023-03-28T17:22:33.406Z,99446.27
2023-03-28T17:25:03.095Z,99429.94
2023-03-28T17:27:34.758Z,99459.20
2023-03-28T17:30:04.900Z,99468.02
2023-03-28T17:32:35.430Z,99464.77
2023-03-28T17:35:04.218Z,99477.27
2023-03-28T17:37:32.578Z,99476.58
2023-03-28T17:40:00.847Z,99480.20
2023-03-28T17:42:29.022Z,99483.42
2023-03-28T17:44:58.543Z,99479.52
2023-03-28T17:47:27.166Z,99480.85
2023-03-28T17:49:57.238Z,99485.27
2023-03-28T17:52:27.399Z,99478.80
2023-03-28T17:54:58.126Z,99483.02
2023-03-28T17:57:27.726Z,99486.29
2023-03-28T17:59:56.119Z,99483.45
2023-03-28T18:02:25.205Z,99494.61
2023-03-28T18:04:59.361Z,99498.71
2023-03-28T18:07:29.400Z,99491.68
2023-03-28T18:10:01.214Z,99494.66
2023-03-28T18:12:29.969Z,99496.83
2023-03-28T18:15:01.188Z,99507.03
2023-03-28T18:17:31.122Z,99513.42
2023-03-28T18:19:59.700Z,99518.21
2023-03-28T18:22:29.295Z,99522.70
2023-03-28T18:24:58.317Z,99518.48
2023-03-28T18:27:27.851Z,99530.31
2023-03-28T18:29:56.673Z,99515.73
2023-03-28T18:32:25.059Z,99542.06
2023-03-28T18:34:53.514Z,99545.95
2023-03-28T18:37:22.114Z,99549.25
2023-03-28T18:39:50.787Z,99555.23
2023-03-28T18:42:20.034Z,99563.66
2023-03-28T18:44:48.908Z,99561.09
2023-03-28T18:47:17.744Z,99567.24
2023-03-28T18:49:46.573Z,99571.52
2023-03-28T18:52:15.696Z,99574.16
2023-03-28T18:54:46.998Z,99576.60
2023-03-28T18:57:16.267Z,99577.88
2023-03-28T18:59:45.767Z,99586.73
2023-03-28T19:02:14.238Z,99590.13
2023-03-28T19:04:42.562Z,99591.73
2023-03-28T19:07:10.936Z,99588.73
2023-03-28T19:09:39.230Z,99591.79
2023-03-28T19:12:07.844Z,99587.92
2023-03-28T19:14:36.474Z,99595.45
2023-03-28T19:17:05.483Z,99591.45
2023-03-28T19:19:37.568Z,99590.71
2023-03-28T19:22:06.697Z,99589.64
2023-03-28T19:24:34.938Z,99591.92
2023-03-28T19:27:05.081Z,99593.77
2023-03-28T19:29:33.733Z,99594.73
2023-03-28T19:32:01.887Z,99596.25
2023-03-28T19:34:30.045Z,99603.70
2023-03-28T19:36:58.684Z,99594.30
2023-03-28T19:39:27.092Z,99607.21
2023-03-28T19:41:56.109Z,99608.61
2023-03-28T19:44:24.504Z,99612.20
2023-03-28T19:46:52.720Z,99612.31
2023-03-28T19:49:20.876Z,99618.77
2023-03-28T19:51:49.039Z,99619.81
2023-03-28T19:54:17.269Z,99624.65
2023-03-28T19:56:46.157Z,99626.86
2023-03-28T19:59:15.164Z,99631.40
2023-03-28T20:01:43.453Z,99628.92
2023-03-28T20:04:12.467Z,99635.28
2023-03-28T20:06:41.112Z,99637.13
2023-03-28T20:09:09.446Z,99648.37
2023-03-28T20:11:42.245Z,99646.10
2023-03-28T20:14:10.773Z,99646.69
2023-03-28T20:16:39.260Z,99649.30
2023-03-28T20:19:07.736Z,99650.85
2023-03-28T20:21:36.072Z,99646.75
2023-03-28T20:24:04.577Z,99652.19
2023-03-28T20:26:33.211Z,99654.94
2023-03-28T20:29:01.806Z,99656.66
2023-03-28T20:31:30.130Z,99665.16
2023-03-28T20:33:58.525Z,99667.65
2023-03-28T20:36:27.288Z,99671.48
2023-03-28T20:38:56.060Z,99675.49
2023-03-28T20:41:24.734Z,99680.04
2023-03-28T20:43:53.388Z,99682.36
2023-03-28T20:46:22.397Z,99681.45
2023-03-28T20:48:53.225Z,99685.61
2023-03-28T20:51:22.861Z,99686.02
2023-03-28T20:53:57.300Z,99690.02
2023-03-28T20:56:27.965Z,99686.66
2023-03-28T20:58:58.965Z,99686.67
2023-03-28T21:01:30.419Z,99689.11
2023-03-28T21:04:01.723Z,99696.04
2023-03-28T21:06:34.702Z,99697.01
2023-03-28T21:09:06.946Z,99700.50
2023-03-28T21:11:37.717Z,99701.25
2023-03-28T21:14:07.732Z,99704.98
2023-03-28T21:16:37.660Z,99713.52
2023-03-28T21:19:06.422Z,99715.27
2023-03-28T21:21:34.727Z,99718.02
2023-03-28T21:24:04.157Z,99719.48
2023-03-28T21:26:32.711Z,99715.16
2023-03-28T21:29:00.963Z,99720.81
2023-03-28T21:31:29.999Z,99725.80
2023-03-28T21:33:59.254Z,99726.59
2023-03-28T21:36:28.641Z,99729.35
2023-03-28T21:38:57.226Z,99732.48
2023-03-28T21:41:27.569Z,99737.06
2023-03-28T21:43:56.981Z,99735.96
2023-03-28T21:46:25.850Z,99744.94
2023-03-28T21:48:54.185Z,99749.30
2023-03-28T21:51:22.476Z,99753.71
2023-03-28T21:53:51.062Z,99756.24
2023-03-28T21:56:19.267Z,99762.98
2023-03-28T21:58:49.255Z,99768.85
2023-03-28T22:01:18.637Z,99771.36
2023-03-28T22:03:47.872Z,99775.13
2023-03-28T22:06:17.710Z,99777.36
2023-03-28T22:08:49.074Z,99783.00
2023-03-28T22:11:20.023Z,99778.88
2023-03-28T22:13:48.137Z,99777.12
2023-03-28T22:16:16.383Z,99780.60
2023-03-28T22:18:50.214Z,99783.20
2023-03-28T22:21:18.573Z,99789.13
2023-03-28T22:23:49.535Z,99790.52
2023-03-28T22:26:18.465Z,99793.30
2023-03-28T22:28:46.788Z,99792.17
2023-03-28T22:31:17.162Z,99790.51
2023-03-28T22:33:45.469Z,99791.05
2023-03-28T22:36:13.879Z,99790.72
2023-03-28T22:38:42.105Z,99795.54
2023-03-28T22:41:11.404Z,99801.64
2023-03-28T22:43:42.986Z,99801.47
2023-03-28T22:46:12.988Z,99799.30
2023-03-28T22:48:42.255Z,99799.16
2023-03-28T22:51:15.993Z,99799.98
2023-03-28T22:53:44.159Z,99798.07
2023-03-28T22:56:12.616Z,99805.96
2023-03-28T22:58:41.434Z,99812.05
2023-03-28T23:01:09.952Z,99814.20
2023-03-28T23:03:38.329Z,99819.00
2023-03-28T23:06:07.002Z,99824.15
2023-03-28T23:08:35.348Z,99825.27
2023-03-28T23:11:03.833Z,99833.97
2023-03-28T23:13:32.483Z,99836.71
2023-03-28T23:16:01.461Z,99836.92
2023-03-28T23:18:31.166Z,99834.34
2023-03-28T23:20:59.543Z,99834.20
2023-03-28T23:23:27.965Z,99832.31
2023-03-28T23:25:56.094Z,99835.59
2023-03-28T23:28:24.344Z,99837.20
2023-03-28T23:30:52.494Z,99840.45
2023-03-28T23:33:21.141Z,99840.77
2023-03-28T23:35:49.588Z,99839.73
2023-03-28T23:38:17.859Z,99839.76
2023-03-28T23:40:46.632Z,99840.95
2023-03-28T23:43:15.128Z,99845.06
2023-03-28T23:45:43.843Z,99842.32
2023-03-28T23:48:12.148Z,99846.45
2023-03-28T23:50:40.689Z,99845.99
2023-03-28T23:53:09.658Z,99848.23
2023-03-28T23:55:37.819Z,99845.89
2023-03-28T23:58:05.999Z,99846.96
